Alice, Texas
Current Conditions -  °F | °C
As of 6:05 AM on Friday 31 Oct 2014 (Local Time) from KALI Reporting Station
Haze Haze  
Wind Chill: 19°   Ceiling: 9000
Heat Index: 19°   Visibility: 4mi
Dew Point: 18°   Wind: 0mph
Humidity: 96%   Direction: NA
Pressure: 30.07"   Gusts: NA
Location:  27.75°N, 98.06°W
Report Text: KALI 311105Z AUTO 00000KT 4SM BR FEW002 BKN090 OVC110 19/18 A3007 RMK AO2 LTG DSNT NE T01890183
Loading
Personal Weather Stations






























Interactive Weather Map
Tropical Storm Tracking
New forecast layout! Learn more

10-Day Weather Forecast

Advertisements
Track Severe Weather on mobile